BLACK BUTTE (BLB)

Elevation: 426' · STONY CR basin · Operator: US Army Corps of Engineers

Provisional data, subject to change.
Query executed Saturday at 1:01:53   clock

Select a sensor type for a plot of data.
Note: Reservoir Flows are daily averages.

Earlier

Date RES ELE    STORAGE    RES CHG    TOC STO    ABV TOC    OUTFLOW    INFLOW    PPT INC    TEMP MN    TEMP MX    EVP PAN   
 FEET   AF   AF   AF   AF   CFS   CFS   INCHES   DEG F   DEG F   INCHES  
10/02/2014 442.38 36266 -219 136200 -99934 124 27 0.00 15 34 0.17
10/03/2014 442.22 35947 -319 136200 -100253 160 13 0.00 18 37 0.18
10/04/2014 442.03 35571 -376 136200 -100629 175 -2 0.01 17 36 0.17
10/05/2014 441.83 35178 -393 135840 -100662 195 11 0.00 18 38 0.18
10/06/2014 441.57 34671 -507 134360 -99689 245 2 0.00 17 36 0.16
10/07/2014 441.32 34188 -483 132880 -98692 218 -11 0.00 18 36 0.19
10/08/2014 441.13 33824 -364 136200 -102376 167 -3 0.01 18 36 0.18
10/09/2014 440.98 33537 -287 129920 -96383 125 -8 0.00 16 33 0.15
10/10/2014 440.86 33310 -227 128440 -95130 86 -18 0.00 15 34 0.14
10/11/2014 440.84 33272 -38 126960 -93688 6 -2 0.00 16 33 0.16
10/12/2014 440.80 33196 -76 125497 -92304 5 -16 0.00 20 32 0.23
10/13/2014 440.80 33196 0 124013 -90814 5 16 0.00 16 30 0.15
10/14/2014 440.79 33177 -19 122533 -89353 5 5 0.00 12 22 0.13
10/15/2014 440.77 33140 -37 121056 -12072497 15 8 0.01 14 23 0.15
10/16/2014 440.66 32932 -208 119563 -86631 129 33 0.00 13 24 0.12
10/17/2014 440.47 32576 -356 118083 -85507 180 8 0.00 10 23 0.11
10/18/2014 440.23 32130 -446 116590 -84460 186 -30 0.00 16 29 0.13
10/19/2014 440.02 31743 -387 115105 -83362 160 -26 0.01 12 27 0.13
10/20/2014 439.82 31377 -366 113624 -82247 173 -2 0.00 12 24 0.13
10/21/2014 439.64 31049 -328 112217 -81168 125 -33 0.00 9 22 0.10
10/22/2014 439.55 30887 -162 110721 -79834 70 -6 0.00 11 22 0.09
10/23/2014 439.51 30814 -73 109224 -78410 22 -13 0.07 14 17 0.04
10/24/2014 439.51 30814 0 107719 -76905 5 13 0.00 13 24 0.12
10/25/2014 439.52 30832 18 106222 -75390 5 24 0.18 14 21 0.14
10/26/2014 439.48 30760 -72 104712 -73952 16 -13 0.00 9 20 0.10
10/27/2014 439.29 30419 -341 103203 -72784 156 -7 0.00 14 23 0.13
10/28/2014 439.05 29992 -427 101698 -71706 198 -11 0.00 10 25 0.10
10/29/2014 438.82 29587 -405 100196 -70609 186 -11 0.00 13 28 0.10
10/30/2014 438.57 29153 -434 98649 -69496 204 -8 0.00 14 25 0.09
10/31/2014 438.43 28912 -- -- -- 121 2 0.08 12 17 0.04
11/01/2014 -- -- -- -- -- -- -- -- -- -- --

Later | Latest

Warning! This data is preliminary and subject to revision.

Show BLB Map | Plot BLB Data | 1 Month BLB Data | Real-Time BLB Data | BLB Info